createdAt,value
2019-03-19T00:01:56.484Z,5.78
2019-03-19T00:04:25.583Z,2.77
2019-03-19T00:06:54.656Z,6.50
2019-03-19T00:09:24.048Z,5.03
2019-03-19T00:11:53.012Z,2.40
2019-03-19T00:14:21.916Z,3.60
2019-03-19T00:16:50.968Z,3.75
2019-03-19T00:19:22.381Z,4.57
2019-03-19T00:21:48.961Z,3.83
2019-03-19T00:24:17.996Z,3.00
2019-03-19T00:26:47.100Z,4.08
2019-03-19T00:29:16.132Z,2.97
2019-03-19T00:31:45.083Z,3.23
2019-03-19T00:34:14.158Z,4.35
2019-03-19T00:36:43.228Z,2.43
2019-03-19T00:39:12.424Z,1.37
2019-03-19T00:41:41.500Z,2.30
2019-03-19T00:44:10.444Z,4.07
2019-03-19T00:46:41.067Z,2.10
2019-03-19T00:49:10.056Z,2.47
2019-03-19T00:51:38.595Z,3.25
2019-03-19T00:54:07.790Z,1.37
2019-03-19T00:56:36.742Z,1.43
2019-03-19T00:59:05.395Z,1.00
2019-03-19T01:01:34.305Z,2.13
2019-03-19T01:04:02.891Z,3.90
2019-03-19T01:06:31.807Z,1.10
2019-03-19T01:09:00.399Z,1.40
2019-03-19T01:11:29.524Z,2.40
2019-03-19T01:13:58.514Z,1.70
2019-03-19T01:16:27.130Z,0.70
2019-03-19T01:18:55.726Z,2.97
2019-03-19T01:21:24.298Z,0.82
2019-03-19T01:23:52.824Z,2.87
2019-03-19T01:26:21.316Z,1.63
2019-03-19T01:28:50.157Z,2.03
2019-03-19T01:31:18.708Z,2.13
2019-03-19T01:33:47.341Z,0.85
2019-03-19T01:36:16.436Z,2.43
2019-03-19T01:38:45.032Z,2.77
2019-03-19T01:41:13.583Z,1.57
2019-03-19T01:43:42.072Z,1.90
2019-03-19T01:46:10.584Z,0.90
2019-03-19T01:48:39.425Z,2.87
2019-03-19T01:51:07.995Z,1.40
2019-03-19T01:53:36.820Z,1.75
2019-03-19T01:56:05.761Z,2.23
2019-03-19T01:58:34.012Z,4.27
2019-03-19T02:01:02.539Z,2.80
2019-03-19T02:03:31.436Z,2.40
2019-03-19T02:05:59.944Z,3.30
2019-03-19T02:08:28.500Z,2.63
2019-03-19T02:10:57.163Z,2.05
2019-03-19T02:13:25.960Z,1.63
2019-03-19T02:15:54.528Z,1.17
2019-03-19T02:18:23.064Z,1.67
2019-03-19T02:20:51.884Z,1.20
2019-03-19T02:23:20.424Z,3.30
2019-03-19T02:25:49.516Z,1.23
2019-03-19T02:28:18.896Z,1.63
2019-03-19T02:30:47.386Z,2.57
2019-03-19T02:33:16.029Z,5.40
2019-03-19T02:35:44.912Z,2.60
2019-03-19T02:38:13.491Z,2.77
2019-03-19T02:40:42.003Z,1.20
2019-03-19T02:43:10.624Z,2.30
2019-03-19T02:45:39.808Z,3.10
2019-03-19T02:48:08.619Z,2.47
2019-03-19T02:50:37.538Z,3.40
2019-03-19T02:53:06.355Z,4.30
2019-03-19T02:55:34.927Z,2.73
2019-03-19T02:58:03.765Z,1.37
2019-03-19T03:00:32.270Z,2.13
2019-03-19T03:03:00.779Z,1.50
2019-03-19T03:05:29.316Z,1.10
2019-03-19T03:07:58.114Z,1.83
2019-03-19T03:10:26.622Z,3.83
2019-03-19T03:12:55.314Z,1.52
2019-03-19T03:15:23.862Z,2.35
2019-03-19T03:17:52.405Z,3.85
2019-03-19T03:20:21.470Z,2.50
2019-03-19T03:22:49.991Z,3.87
2019-03-19T03:25:18.623Z,3.27
2019-03-19T03:27:47.231Z,1.80
2019-03-19T03:30:15.774Z,1.50
2019-03-19T03:32:44.339Z,1.80
2019-03-19T03:35:12.927Z,5.70
2019-03-19T03:37:41.822Z,2.93
2019-03-19T03:40:11.478Z,1.67
2019-03-19T03:42:43.035Z,1.87
2019-03-19T03:45:10.574Z,1.70
2019-03-19T03:47:39.454Z,3.30
2019-03-19T03:50:09.258Z,2.37
2019-03-19T03:52:37.807Z,2.27
2019-03-19T03:55:07.139Z,2.47
2019-03-19T03:57:35.748Z,3.67
2019-03-19T04:00:06.806Z,3.23
2019-03-19T04:02:35.426Z,3.83
2019-03-19T04:05:04.677Z,5.23
2019-03-19T04:07:33.860Z,3.07
2019-03-19T04:10:03.074Z,2.13
2019-03-19T04:12:31.598Z,6.07
2019-03-19T04:15:00.411Z,2.30
2019-03-19T04:17:29.001Z,5.00
2019-03-19T04:19:57.844Z,5.78
2019-03-19T04:22:26.806Z,3.97
2019-03-19T04:24:55.334Z,3.70
2019-03-19T04:27:23.869Z,4.70
2019-03-19T04:29:52.386Z,4.10
2019-03-19T04:32:20.905Z,3.13
2019-03-19T04:34:49.417Z,2.93
2019-03-19T04:37:18.246Z,4.43
2019-03-19T04:39:46.789Z,2.92
2019-03-19T04:42:15.758Z,3.87
2019-03-19T04:44:44.324Z,3.40
2019-03-19T04:47:13.285Z,1.80
2019-03-19T04:49:41.803Z,2.20
2019-03-19T04:52:10.349Z,3.07
2019-03-19T04:54:38.881Z,2.90
2019-03-19T04:57:07.517Z,4.90
2019-03-19T04:59:36.357Z,2.10
2019-03-19T05:02:06.069Z,1.60
2019-03-19T05:04:34.569Z,2.15
2019-03-19T05:07:03.185Z,1.90
2019-03-19T05:09:31.682Z,1.73
2019-03-19T05:12:00.161Z,2.07
2019-03-19T05:14:29.305Z,2.37
2019-03-19T05:16:58.105Z,2.03
2019-03-19T05:19:26.673Z,2.13
2019-03-19T05:21:55.205Z,2.53
2019-03-19T05:24:23.752Z,2.30
2019-03-19T05:26:52.294Z,4.00
2019-03-19T05:29:20.878Z,2.57
2019-03-19T05:31:49.377Z,4.23
2019-03-19T05:34:18.328Z,4.47
2019-03-19T05:36:47.177Z,6.57
2019-03-19T05:39:16.052Z,3.37
2019-03-19T05:41:44.908Z,2.63
2019-03-19T05:44:13.717Z,6.13
2019-03-19T05:46:42.276Z,3.70
2019-03-19T05:49:10.929Z,6.50
2019-03-19T05:51:39.812Z,6.30
2019-03-19T05:54:08.710Z,3.73
2019-03-19T05:56:37.315Z,3.17
2019-03-19T05:59:05.956Z,3.45
2019-03-19T06:01:34.476Z,4.40
2019-03-19T06:04:03.148Z,5.47
2019-03-19T06:06:31.705Z,3.25
2019-03-19T06:09:00.244Z,5.70
2019-03-19T06:11:28.805Z,3.58
2019-03-19T06:13:57.376Z,5.03
2019-03-19T06:16:26.776Z,2.87
2019-03-19T06:18:55.704Z,4.30
2019-03-19T06:21:24.300Z,4.20
2019-03-19T06:23:53.328Z,4.93
2019-03-19T06:26:22.264Z,3.60
2019-03-19T06:28:51.152Z,5.23
2019-03-19T06:31:19.833Z,3.40
2019-03-19T06:33:48.572Z,2.90
2019-03-19T06:36:17.124Z,3.87
2019-03-19T06:38:45.780Z,3.50
2019-03-19T06:41:16.876Z,4.80
2019-03-19T06:43:45.593Z,5.57
2019-03-19T06:46:14.224Z,6.33
2019-03-19T06:48:42.756Z,5.37
2019-03-19T06:51:12.072Z,3.98
2019-03-19T06:53:40.606Z,5.87
2019-03-19T06:56:09.520Z,6.22
2019-03-19T06:58:38.052Z,6.80
2019-03-19T07:01:06.599Z,6.12
2019-03-19T07:03:35.460Z,9.00
2019-03-19T07:06:04.937Z,7.00
2019-03-19T07:08:33.499Z,5.53
2019-03-19T07:11:02.468Z,5.28
2019-03-19T07:13:31.464Z,4.87
2019-03-19T07:16:00.384Z,6.37
2019-03-19T07:18:29.248Z,7.15
2019-03-19T07:20:57.820Z,3.62
2019-03-19T07:23:26.359Z,5.83
2019-03-19T07:25:54.907Z,6.90
2019-03-19T07:28:23.603Z,4.00
2019-03-19T07:30:52.989Z,5.65
2019-03-19T07:33:21.560Z,4.53
2019-03-19T07:35:50.138Z,2.85
2019-03-19T07:38:18.956Z,7.37
2019-03-19T07:40:47.500Z,6.65
2019-03-19T07:43:16.024Z,3.40
2019-03-19T07:45:44.799Z,5.47
2019-03-19T07:48:13.400Z,6.10
2019-03-19T07:50:41.989Z,6.42
2019-03-19T07:53:10.603Z,7.40
2019-03-19T07:55:39.307Z,3.67
2019-03-19T07:58:07.977Z,4.15
2019-03-19T08:00:37.007Z,3.52
2019-03-19T08:03:15.539Z,5.33
2019-03-19T08:05:34.872Z,7.05
2019-03-19T08:08:03.952Z,4.35
2019-03-19T08:10:32.603Z,4.20
2019-03-19T08:13:01.262Z,3.95
2019-03-19T08:15:30.196Z,7.22
2019-03-19T08:17:58.823Z,3.00
2019-03-19T08:20:27.488Z,3.15
2019-03-19T08:22:56.255Z,2.50
2019-03-19T08:25:24.987Z,4.45
2019-03-19T08:27:53.744Z,4.72
2019-03-19T08:30:24.566Z,5.03
2019-03-19T08:32:52.207Z,4.40
2019-03-19T08:35:20.963Z,3.22
2019-03-19T08:37:50.063Z,4.62
2019-03-19T08:40:18.784Z,3.75
2019-03-19T08:42:47.819Z,8.70
2019-03-19T08:45:16.459Z,5.90
2019-03-19T08:47:45.163Z,5.87
2019-03-19T08:50:15.423Z,5.97
2019-03-19T08:52:44.059Z,5.15
2019-03-19T08:55:12.655Z,3.27
2019-03-19T08:57:41.351Z,1.70
2019-03-19T09:00:13.095Z,5.72
2019-03-19T09:02:41.710Z,4.12
2019-03-19T09:05:10.560Z,3.33
2019-03-19T09:07:39.186Z,3.42
2019-03-19T09:10:08.669Z,3.60
2019-03-19T09:12:37.258Z,3.90
2019-03-19T09:15:08.087Z,5.92
2019-03-19T09:17:36.825Z,4.95
2019-03-19T09:20:06.677Z,2.70
2019-03-19T09:22:35.455Z,2.70
2019-03-19T09:25:05.659Z,2.50
2019-03-19T09:27:34.283Z,3.98
2019-03-19T09:30:02.979Z,2.98
2019-03-19T09:32:32.023Z,4.25
2019-03-19T09:35:00.871Z,4.08
2019-03-19T09:37:29.629Z,5.05
2019-03-19T09:39:58.287Z,3.40
2019-03-19T09:42:26.917Z,4.00
2019-03-19T09:44:58.729Z,1.27
2019-03-19T09:47:24.245Z,4.22
2019-03-19T09:49:52.910Z,3.08
2019-03-19T09:52:22.076Z,3.75
2019-03-19T09:54:50.621Z,3.80
2019-03-19T09:57:19.188Z,3.60
2019-03-19T09:59:48.332Z,1.55
2019-03-19T10:02:16.914Z,1.98
2019-03-19T10:04:45.485Z,2.52
2019-03-19T10:07:14.252Z,3.63
2019-03-19T10:09:42.843Z,2.55
2019-03-19T10:12:11.442Z,2.40
2019-03-19T10:14:40.248Z,2.40
2019-03-19T10:17:08.789Z,5.22
2019-03-19T10:19:37.337Z,2.75
2019-03-19T10:22:05.914Z,3.08
2019-03-19T10:24:34.437Z,3.85
2019-03-19T10:27:03.053Z,5.10
2019-03-19T10:29:38.222Z,3.20
2019-03-19T10:32:00.241Z,3.00
2019-03-19T10:34:29.123Z,5.12
2019-03-19T10:36:58.029Z,4.83
2019-03-19T10:39:26.870Z,1.52
2019-03-19T10:41:55.389Z,3.62
2019-03-19T10:44:23.997Z,3.02
2019-03-19T10:46:52.818Z,3.47
2019-03-19T10:49:21.381Z,3.13
2019-03-19T10:51:50.214Z,6.05
2019-03-19T10:54:18.824Z,4.85
2019-03-19T10:56:48.053Z,3.50
2019-03-19T10:59:16.628Z,2.65
2019-03-19T11:01:45.207Z,2.77
2019-03-19T11:04:14.009Z,5.00
2019-03-19T11:06:42.556Z,4.40
2019-03-19T11:09:11.425Z,2.72
2019-03-19T11:11:39.933Z,5.03
2019-03-19T11:14:08.721Z,3.10
2019-03-19T11:16:37.258Z,3.33
2019-03-19T11:19:06.169Z,2.75
2019-03-19T11:21:34.737Z,3.85
2019-03-19T11:24:03.345Z,5.17
2019-03-19T11:26:31.863Z,2.65
2019-03-19T11:29:00.428Z,6.55
2019-03-19T11:31:29.797Z,4.22
2019-03-19T11:33:58.340Z,5.28
2019-03-19T11:36:26.893Z,6.70
2019-03-19T11:38:55.519Z,5.37
2019-03-19T11:41:24.653Z,4.22
2019-03-19T11:43:53.240Z,7.78
2019-03-19T11:46:21.804Z,6.60
2019-03-19T11:48:50.328Z,4.95
2019-03-19T11:51:18.884Z,3.37
2019-03-19T11:53:47.728Z,6.17
2019-03-19T11:56:16.268Z,3.12
2019-03-19T11:58:45.092Z,6.72
2019-03-19T12:01:13.656Z,5.90
2019-03-19T12:03:42.268Z,6.33
2019-03-19T12:06:10.796Z,5.53
2019-03-19T12:08:39.524Z,2.60
2019-03-19T12:11:08.108Z,4.37
2019-03-19T12:13:36.680Z,4.58
2019-03-19T12:16:05.248Z,4.85
2019-03-19T12:18:34.328Z,6.10
2019-03-19T12:21:03.604Z,4.40
2019-03-19T12:23:32.160Z,4.80
2019-03-19T12:26:00.820Z,7.28
2019-03-19T12:28:39.330Z,3.80
2019-03-19T12:30:58.604Z,3.37
2019-03-19T12:33:27.144Z,5.00
2019-03-19T12:35:57.779Z,6.28
2019-03-19T12:38:24.744Z,3.67
2019-03-19T12:40:53.384Z,6.28
2019-03-19T12:43:21.956Z,6.28
2019-03-19T12:45:50.500Z,6.40
2019-03-19T12:48:19.528Z,4.70
2019-03-19T12:50:48.409Z,5.20
2019-03-19T12:53:16.968Z,7.62
2019-03-19T12:55:46.247Z,8.33
2019-03-19T12:58:14.788Z,4.13
2019-03-19T13:00:43.582Z,4.55
2019-03-19T13:03:12.431Z,5.22
2019-03-19T13:05:40.948Z,3.30
2019-03-19T13:08:09.832Z,4.05
2019-03-19T13:10:38.859Z,4.87
2019-03-19T13:13:07.917Z,6.75
2019-03-19T13:15:36.653Z,5.75
2019-03-19T13:18:05.416Z,5.47
2019-03-19T13:20:34.107Z,4.67
2019-03-19T13:23:04.686Z,4.08
2019-03-19T13:25:33.235Z,4.60
2019-03-19T13:28:02.435Z,2.10
2019-03-19T13:30:30.963Z,4.87
2019-03-19T13:32:59.691Z,8.08
2019-03-19T13:35:28.345Z,9.53
2019-03-19T13:37:56.919Z,6.05
2019-03-19T13:40:25.472Z,5.08
2019-03-19T13:42:54.312Z,2.65
2019-03-19T13:45:22.967Z,3.13
2019-03-19T13:47:51.551Z,2.80
2019-03-19T13:50:20.225Z,3.10
2019-03-19T13:52:48.891Z,5.90
2019-03-19T13:55:17.550Z,3.27
2019-03-19T13:57:46.074Z,4.42
2019-03-19T14:00:14.756Z,2.97
2019-03-19T14:02:43.499Z,4.03
2019-03-19T14:05:12.171Z,5.15
2019-03-19T14:07:40.795Z,4.22
2019-03-19T14:10:09.799Z,3.67
2019-03-19T14:12:38.323Z,4.62
2019-03-19T14:15:08.295Z,4.33
2019-03-19T14:17:37.171Z,3.87
2019-03-19T14:20:07.351Z,5.08
2019-03-19T14:22:36.563Z,3.00
2019-03-19T14:25:06.169Z,4.30
2019-03-19T14:27:35.039Z,2.17
2019-03-19T14:30:03.678Z,2.55
2019-03-19T14:32:32.391Z,4.90
2019-03-19T14:35:00.966Z,4.28
2019-03-19T14:37:29.511Z,2.95
2019-03-19T14:39:58.148Z,3.83
2019-03-19T14:42:26.831Z,4.78
2019-03-19T14:44:55.363Z,3.12
2019-03-19T14:47:24.219Z,5.60
2019-03-19T14:49:53.088Z,3.58
2019-03-19T14:52:21.884Z,3.30
2019-03-19T14:54:50.664Z,4.83
2019-03-19T14:57:19.415Z,3.62
2019-03-19T14:59:48.139Z,4.05
2019-03-19T15:02:16.958Z,4.62
2019-03-19T15:04:45.599Z,6.55
2019-03-19T15:07:14.161Z,2.52
2019-03-19T15:09:42.713Z,4.35
2019-03-19T15:12:11.509Z,6.83
2019-03-19T15:14:40.042Z,4.45
2019-03-19T15:17:08.752Z,3.58
2019-03-19T15:19:37.801Z,5.35
2019-03-19T15:22:06.349Z,4.67
2019-03-19T15:24:35.113Z,3.85
2019-03-19T15:27:04.125Z,6.50
2019-03-19T15:29:32.933Z,7.35
2019-03-19T15:32:03.487Z,5.25
2019-03-19T15:34:30.501Z,4.12
2019-03-19T15:36:59.017Z,3.55
2019-03-19T15:39:27.813Z,3.90
2019-03-19T15:41:56.692Z,1.30
2019-03-19T15:44:25.515Z,2.12
2019-03-19T15:46:54.139Z,4.08
2019-03-19T15:49:22.877Z,3.42
2019-03-19T15:51:51.629Z,8.03
2019-03-19T15:54:20.197Z,8.33
2019-03-19T15:56:48.954Z,4.08
2019-03-19T15:59:17.535Z,5.03
2019-03-19T16:01:46.093Z,6.35
2019-03-19T16:04:14.667Z,8.05
2019-03-19T16:06:43.247Z,6.92
2019-03-19T16:09:12.055Z,3.25
2019-03-19T16:11:40.816Z,7.28
2019-03-19T16:14:09.397Z,4.40
2019-03-19T16:16:37.911Z,1.90
2019-03-19T16:19:06.451Z,5.35
2019-03-19T16:21:35.051Z,6.00
2019-03-19T16:24:03.626Z,5.10
2019-03-19T16:26:32.191Z,3.95
2019-03-19T16:29:01.083Z,4.70
2019-03-19T16:31:29.590Z,6.87
2019-03-19T16:33:58.107Z,8.95
2019-03-19T16:36:26.607Z,7.53
2019-03-19T16:38:55.175Z,8.60
2019-03-19T16:41:24.106Z,8.73
2019-03-19T16:43:53.259Z,6.70
2019-03-19T16:46:21.768Z,8.70
2019-03-19T16:48:50.295Z,5.87
2019-03-19T16:51:18.799Z,9.58
2019-03-19T16:53:47.354Z,5.72
2019-03-19T16:56:15.882Z,8.65
2019-03-19T16:58:44.527Z,8.23
2019-03-19T17:01:13.083Z,11.73
2019-03-19T17:03:42.090Z,8.05
2019-03-19T17:06:10.754Z,13.05
2019-03-19T17:08:39.243Z,9.93
2019-03-19T17:11:07.845Z,12.30
2019-03-19T17:13:36.334Z,8.93
2019-03-19T17:16:05.107Z,10.88
2019-03-19T17:18:33.854Z,12.23
2019-03-19T17:21:02.346Z,12.17
2019-03-19T17:23:30.870Z,11.73
2019-03-19T17:25:59.799Z,13.72
2019-03-19T17:28:29.179Z,11.37
2019-03-19T17:30:58.255Z,11.20
2019-03-19T17:33:27.256Z,14.93
2019-03-19T17:36:10.925Z,12.20
2019-03-19T17:38:40.054Z,12.53
2019-03-19T17:41:08.919Z,18.95
2019-03-19T17:43:37.906Z,16.75
2019-03-19T17:46:07.071Z,13.23
2019-03-19T17:48:35.843Z,18.67
2019-03-19T17:51:06.274Z,21.73
2019-03-19T17:53:35.082Z,22.67
2019-03-19T17:56:03.779Z,20.83
2019-03-19T17:58:32.398Z,23.15
2019-03-19T18:01:01.634Z,25.37
2019-03-19T18:03:30.170Z,23.90
2019-03-19T18:05:58.847Z,18.60
2019-03-19T18:08:27.478Z,22.27
2019-03-19T18:10:56.559Z,24.63
2019-03-19T18:13:25.350Z,26.20
2019-03-19T18:15:53.850Z,23.97
2019-03-19T18:18:22.630Z,31.33
2019-03-19T18:20:51.165Z,24.65
2019-03-19T18:23:19.662Z,20.30
2019-03-19T18:25:48.142Z,19.80
2019-03-19T18:28:16.622Z,21.23
2019-03-19T18:30:45.138Z,25.70
2019-03-19T18:33:13.894Z,25.60
2019-03-19T18:35:42.397Z,23.02
2019-03-19T18:38:10.950Z,22.20
2019-03-19T18:40:39.481Z,22.20
2019-03-19T18:43:07.990Z,23.63
2019-03-19T18:45:36.540Z,27.33
2019-03-19T18:48:05.062Z,33.08
2019-03-19T18:50:33.585Z,26.80
2019-03-19T18:53:02.350Z,22.33
2019-03-19T18:55:31.297Z,25.85
2019-03-19T18:57:59.809Z,22.27
2019-03-19T19:00:28.343Z,26.43
2019-03-19T19:02:56.797Z,32.57
2019-03-19T19:05:25.337Z,18.05
2019-03-19T19:07:54.173Z,31.65
2019-03-19T19:10:22.625Z,38.57
2019-03-19T19:12:51.153Z,42.30
2019-03-19T19:15:19.669Z,37.23
2019-03-19T19:17:48.234Z,29.12
2019-03-19T19:20:16.811Z,34.37
2019-03-19T19:22:45.568Z,33.92
2019-03-19T19:25:14.398Z,24.67
2019-03-19T19:27:42.909Z,35.70
2019-03-19T19:30:14.205Z,26.68
2019-03-19T19:32:43.009Z,27.27
2019-03-19T19:35:11.648Z,29.70
2019-03-19T19:37:40.273Z,32.78
2019-03-19T19:40:10.377Z,33.10
2019-03-19T19:42:39.153Z,34.67
2019-03-19T19:45:07.889Z,27.23
2019-03-19T19:47:36.433Z,27.75
2019-03-19T19:50:06.193Z,32.88
2019-03-19T19:52:35.177Z,30.30
2019-03-19T19:55:03.969Z,40.10
2019-03-19T19:57:32.613Z,34.67
2019-03-19T20:00:02.005Z,33.50
2019-03-19T20:02:29.833Z,27.02
2019-03-19T20:05:03.018Z,30.50
2019-03-19T20:07:27.702Z,35.33
2019-03-19T20:09:56.307Z,31.47
2019-03-19T20:12:24.826Z,26.97
2019-03-19T20:14:53.438Z,30.53
2019-03-19T20:17:22.330Z,27.35
2019-03-19T20:19:51.138Z,26.57
2019-03-19T20:22:19.633Z,27.60
2019-03-19T20:24:48.205Z,27.37
2019-03-19T20:27:16.729Z,31.70
2019-03-19T20:29:45.235Z,32.20
2019-03-19T20:32:13.839Z,28.42
2019-03-19T20:34:42.351Z,30.17
2019-03-19T20:37:10.926Z,30.77
2019-03-19T20:39:39.467Z,40.40
2019-03-19T20:42:08.000Z,32.60
2019-03-19T20:44:36.505Z,35.73
2019-03-19T20:47:05.379Z,30.10
2019-03-19T20:49:33.875Z,32.83
2019-03-19T20:52:02.388Z,35.63
2019-03-19T20:54:31.203Z,34.13
2019-03-19T20:56:59.727Z,34.33
2019-03-19T20:59:28.266Z,33.07
2019-03-19T21:01:56.814Z,37.53
2019-03-19T21:04:25.706Z,32.33
2019-03-19T21:06:54.221Z,38.07
2019-03-19T21:09:23.207Z,33.93
2019-03-19T21:11:53.377Z,32.60
2019-03-19T21:14:20.429Z,32.20
2019-03-19T21:16:49.001Z,33.23
2019-03-19T21:19:17.901Z,32.97
2019-03-19T21:21:46.683Z,39.23
2019-03-19T21:24:15.198Z,37.53
2019-03-19T21:26:43.919Z,34.23
2019-03-19T21:29:12.440Z,40.25
2019-03-19T21:31:40.971Z,38.70
2019-03-19T21:34:09.903Z,35.37
2019-03-19T21:36:38.680Z,32.00
2019-03-19T21:39:09.170Z,40.23
2019-03-19T21:41:37.702Z,45.60
2019-03-19T21:44:06.848Z,52.40
2019-03-19T21:46:35.446Z,51.50
2019-03-19T21:49:04.837Z,51.57
2019-03-19T21:51:33.405Z,47.73
2019-03-19T21:54:01.914Z,47.80
2019-03-19T21:56:30.415Z,50.23
2019-03-19T21:58:59.047Z,57.67
2019-03-19T22:01:27.621Z,69.50
2019-03-19T22:04:03.126Z,66.57
2019-03-19T22:06:24.779Z,70.50
2019-03-19T22:08:53.307Z,74.80
2019-03-19T22:11:21.814Z,78.57
2019-03-19T22:13:51.095Z,75.97
2019-03-19T22:16:19.915Z,72.85
2019-03-19T22:18:48.527Z,80.20
2019-03-19T22:21:17.056Z,82.60
2019-03-19T22:23:45.627Z,68.37
2019-03-19T22:26:14.232Z,79.77
2019-03-19T22:28:43.022Z,72.67
2019-03-19T22:31:11.594Z,85.70
2019-03-19T22:33:40.196Z,78.90
2019-03-19T22:36:08.843Z,68.57
2019-03-19T22:38:37.911Z,84.47
2019-03-19T22:41:06.799Z,86.30
2019-03-19T22:43:35.297Z,71.33
2019-03-19T22:46:04.763Z,65.47
2019-03-19T22:48:33.271Z,56.93
2019-03-19T22:51:01.819Z,62.87
2019-03-19T22:53:31.479Z,67.27
2019-03-19T22:55:59.731Z,52.60
2019-03-19T22:58:28.350Z,54.07
2019-03-19T23:00:57.742Z,59.93
2019-03-19T23:03:25.563Z,55.53
2019-03-19T23:05:54.094Z,53.30
2019-03-19T23:08:22.614Z,57.30
2019-03-19T23:10:51.154Z,45.53
2019-03-19T23:13:19.759Z,49.43
2019-03-19T23:15:48.411Z,43.20
2019-03-19T23:18:17.011Z,53.10
2019-03-19T23:20:45.507Z,45.50
2019-03-19T23:23:14.146Z,42.83
2019-03-19T23:25:42.643Z,45.87
2019-03-19T23:28:11.197Z,43.70
2019-03-19T23:30:39.790Z,33.00
2019-03-19T23:33:08.638Z,42.07
2019-03-19T23:35:37.260Z,36.40
2019-03-19T23:38:06.074Z,43.43
2019-03-19T23:40:34.787Z,41.53
2019-03-19T23:43:03.287Z,37.40
2019-03-19T23:45:32.059Z,31.20
2019-03-19T23:48:00.587Z,33.87
2019-03-19T23:50:29.398Z,38.57
2019-03-19T23:52:58.243Z,39.87
2019-03-19T23:55:26.742Z,43.30
2019-03-19T23:57:55.252Z,38.37
